Amunt
Inicio > meteoXarxa
Fes-te'n soci

METEOXARXA

Cabanes
Ubicació la Ribera de Cabanes
Comarca la Plana Alta
Altitud (msnm)
Posició geogràfica 40° 7' 31.08" N, 00° 9' 21.96" E
Model
Presa de dades
Font de les dades IVIA
Estadístiques. Resum
Data Temperatura (ºC) Humitat (%) Pressió (hPa) Vent (km/h) Precipit. (mm)
Mínima Mitjana Màxima Mínima Mitjana Màxima Mínima Mitjana Màxima Predom. Mitjana Ràfega màxima Total Dies de pluja
Mínima Mitjana Màxima Mínima Mitjana Màxima
Últimes dades diàries
18-01-2017 0,1     4,9     10,6 31,4 NW 6,1 19,5 0,0  
17-01-2017 -0,9     8,7     13,4 33,5 N 8,2 28,4 0,0  
16-01-2017 10,3     14,1     18,4 45,5 N 10,4 35,1 0,0  
15-01-2017 4,5     10,6     15,5 45,6 N 6,5 30,6 0,0  
13-01-2017 8,3     12,5     16,3 43,5 NW 8,7 31,5 0,0  
12-01-2017 6,8     12,3     18,7 71,9 W 3,4 12,9 0,0  
11-01-2017 7,5     11,4     15,5 61,1 N 5,4 31,4 0,0  
10-01-2017 6,4     12,1     16,7 56,2 NW 9,4 43,6 0,0  
09-01-2017 4,6     8,9     14,9 70,1 W 5,1 14,2 0,0  
08-01-2017 4,0     8,4     14,7 64,9 W 5,8 15,6 0,0  
07-01-2017 5,0     8,8     14,7 78,0 W 5,7 13,3 0,0  
06-01-2017 5,2     8,8     13,8 66,0 NW 5,6 16,1 0,0  
05-01-2017 3,8     9,4     17,8 67,0 W 4,9 16,0 0,0  
04-01-2017 4,8     9,7     15,2 87,1 W 4,7 12,5 0,0  
03-01-2017 5,5     9,1     14,1 86,0 W 4,3 13,1 0,0  
02-01-2017 5,3     8,7     13,7 81,5 W 4,8 13,4 0,0  
01-01-2017 4,0     8,2     13,6 85,1 NW 5,5 15,2 0,0  
31-12-2016 6,7     9,9     15,3 76,4 W 5,2 13,6 0,0  
30-12-2016 4,5     8,7     15,7 73,3 W 6,1 14,3 0,0  
29-12-2016 4,4     8,3     14,5 69,0 NW 5,9 13,7 0,0  
28-12-2016 5,8     9,9     16,7 74,0 NW 6,3 14,2 0,0  
27-12-2016 6,6     10,0     16,0 80,8 W 4,9 16,0 0,0  
22-12-2016 9,2     12,7     19,6 64,2 NW 4,8 14,5 0,0  
21-12-2016 8,1     12,5     18,8 55,9 N 5,0 18,7 0,0  
20-12-2016 8,4     13,0     16,8 52,2 NW 4,4 17,1 0,0  
19-12-2016 7,9     9,9     11,8 54,9 78,4 92,5 N 11,8 27,1 19,0  
18-12-2016 9,3     10,6     12,5 70,4 83,4 89,7 N 12,2 25,7 10,5  
17-12-2016 11,2     13,0     15,1 66,9 83,3 96,7 NE 12,0 30,3 29,1  
16-12-2016 10,6     12,5     16,1 73,3 88,2 94,0 N 4,7 21,2 8,5  
15-12-2016 6,9     10,9     16,5 64,8 81,7 90,2 NO 4,4 13,8 0,2  
14-12-2016 7,3     10,6     16,2 64,3 80,8 91,6 O 5,7 15,9 0,0  
13-12-2016 6,9     10,6     17,1 61,6 79,4 92,0 O 6,3 16,8 0,0  
Dades del mes en curs (actualitzades fins l'últim dia disponible)
01/2017 -0,9 5,0 10,3 9,8 10,6 15,2 18,7 63,2   6,1 43,6 0,0  
Últimes dades mensuals
12/2016 4,4 8,5 14,5 11,7 11,8 16,5 19,6 52,2 77,6 88,6 6,1 30,3 82,6 8
11/2016 2,8 9,6 15,0 14,1 14,3 19,4 26,4 46,0 69,5 89,4 4,2 25,4 45,2 3
10/2016 11,2 15,7 18,5 19,4 19,5 24,1 27,9 64,0 77,2 90,0 3,4 29,3 0,4 2
09/2016 13,6 18,3 23,2 29,2 33,6 20,7 66,3 95,6 O 3,0 23,5 16,2
08/2016 15,8 20,2 25,2 30,8 34,5 25,2 68,4 94,5 O 2,2 20,1 19,4
07/2016 15,1 19,7 25,4 31,0 33,8 27,2 62,9 91,0 SO 2,1 21,2 0,0
06/2016 12,6 16,7 21,0 22,3 24,7 27,6 30,2 41,6 62,4 74,4 3,5 19,6 0,6 2
05/2016 6,3 12,2 17,6 22,8 29,1 16,5 68,1 97,5 SO 4,0 28,2 32,7
04/2016 5,8 10,0 15,2 20,9 28,2 21,7 67,1 97,7 O 4,5 28,7 42,4
03/2016 2,6 7,3 12,7 18,4 24,1 19,2 59,8 95,9 NO 4,6 28,7 43,6
02/2016 0,7 6,8 12,3 18,7 26,9 18,5 55,9 94,1 O 4,9 35,9 5,9
01/2016 0,8 7,1 12,1 17,7 23,4 20,3 65,4 95,6 O 4,0 34,5 2,8
12/2015 6,0 8,6 12,3 18,1 21,1 47,1 81,1 96,5 O 4,1 15,7 1,8
Dades de l'any en curs (actualitzades fins l'últim dia disponible)
2017 -0,9 5,0 10,3 9,8 10,6 15,2 18,7 63,2   6,1 43,6 0,0  
Últimes dades anuals
2007 727,0
2008 605,0
2009 -1,4 15,3 22,7 20,2 8,0 25,6 42,7 34,0 66,2 95,0 4,4 63,0 484,2 50
2010 -1,5 11,6 23,3 16,4 5,3 21,4 35,0 28,0 67,1 96,0 4,7 60,0 361,0 92
2011 448,9
2012 198,9
2014 -1,7 13,0 17,8 23,2 34,6 13,4 66,7 95,5 SO 4,4 45,0 357,9
2015 -4,1 11,6 17,1 23,2 42,3 6,5 70,5 100,0 SO 2,7 32,2 504,3